createdAt,value
2019-02-25T00:00:15.868Z,17.47
2019-02-25T00:02:42.212Z,17.51
2019-02-25T00:05:08.542Z,17.52
2019-02-25T00:07:34.936Z,17.51
2019-02-25T00:10:01.267Z,17.46
2019-02-25T00:12:27.597Z,17.53
2019-02-25T00:14:53.980Z,17.55
2019-02-25T00:17:20.364Z,17.51
2019-02-25T00:19:46.710Z,17.54
2019-02-25T00:22:13.114Z,17.48
2019-02-25T00:24:39.388Z,17.49
2019-02-25T00:27:05.803Z,17.44
2019-02-25T00:29:32.131Z,17.47
2019-02-25T00:31:58.471Z,17.43
2019-02-25T00:34:24.801Z,17.45
2019-02-25T00:36:51.188Z,17.47
2019-02-25T00:39:17.539Z,17.42
2019-02-25T00:41:43.867Z,17.44
2019-02-25T00:44:10.206Z,17.39
2019-02-25T00:46:36.530Z,17.39
2019-02-25T00:49:03.029Z,17.41
2019-02-25T00:51:29.360Z,17.45
2019-02-25T00:53:55.729Z,17.40
2019-02-25T00:56:22.131Z,17.42
2019-02-25T00:58:48.465Z,17.35
2019-02-25T01:01:14.834Z,17.35
2019-02-25T01:03:41.171Z,17.40
2019-02-25T01:06:07.712Z,17.50
2019-02-25T01:08:34.041Z,17.42
2019-02-25T01:11:00.382Z,17.37
2019-02-25T01:13:26.752Z,17.37
2019-02-25T01:15:53.079Z,17.32
2019-02-25T01:18:19.477Z,17.37
2019-02-25T01:20:45.929Z,17.40
2019-02-25T01:23:12.309Z,17.44
2019-02-25T01:25:38.692Z,17.45
2019-02-25T01:28:06.018Z,17.46
2019-02-25T01:30:32.354Z,17.51
2019-02-25T01:32:58.821Z,17.50
2019-02-25T01:35:25.188Z,17.54
2019-02-25T01:37:51.513Z,17.56
2019-02-25T01:40:17.845Z,17.58
2019-02-25T01:42:44.178Z,17.61
2019-02-25T01:45:10.519Z,17.58
2019-02-25T01:47:36.889Z,17.64
2019-02-25T01:50:03.245Z,17.62
2019-02-25T01:52:29.620Z,17.63
2019-02-25T01:54:55.960Z,17.64
2019-02-25T01:57:22.292Z,17.67
2019-02-25T01:59:48.723Z,17.65
2019-02-25T02:02:15.029Z,17.70
2019-02-25T02:04:41.395Z,17.72
2019-02-25T02:07:07.735Z,17.71
2019-02-25T02:09:34.109Z,17.76
2019-02-25T02:12:00.440Z,17.84
2019-02-25T02:14:26.773Z,17.92
2019-02-25T02:16:53.100Z,17.96
2019-02-25T02:19:19.456Z,17.98
2019-02-25T02:21:45.929Z,18.00
2019-02-25T02:24:12.321Z,18.05
2019-02-25T02:26:38.656Z,18.06
2019-02-25T02:29:04.994Z,18.12
2019-02-25T02:31:31.341Z,18.12
2019-02-25T02:33:57.680Z,18.18
2019-02-25T02:36:24.038Z,18.19
2019-02-25T02:38:50.375Z,18.22
2019-02-25T02:41:16.703Z,18.24
2019-02-25T02:43:43.088Z,18.27
2019-02-25T02:46:09.416Z,18.28
2019-02-25T02:48:35.764Z,18.29
2019-02-25T02:51:02.097Z,18.34
2019-02-25T02:53:28.431Z,18.38
2019-02-25T02:55:54.831Z,18.33
2019-02-25T02:58:21.150Z,18.41
2019-02-25T03:00:47.526Z,18.44
2019-02-25T03:03:13.853Z,18.46
2019-02-25T03:05:40.229Z,18.46
2019-02-25T03:08:06.574Z,18.48
2019-02-25T03:10:32.902Z,18.51
2019-02-25T03:12:59.256Z,18.54
2019-02-25T03:15:25.592Z,18.56
2019-02-25T03:17:51.947Z,18.57
2019-02-25T03:20:18.333Z,18.58
2019-02-25T03:22:44.645Z,18.60
2019-02-25T03:25:11.017Z,18.62
2019-02-25T03:27:37.314Z,18.64
2019-02-25T03:30:03.655Z,18.65
2019-02-25T03:32:30.130Z,18.66
2019-02-25T03:34:56.520Z,18.68
2019-02-25T03:37:22.807Z,18.68
2019-02-25T03:39:49.180Z,18.72
2019-02-25T03:42:15.507Z,18.74
2019-02-25T03:44:41.841Z,18.71
2019-02-25T03:47:08.168Z,18.77
2019-02-25T03:49:34.628Z,18.78
2019-02-25T03:52:00.974Z,18.77
2019-02-25T03:54:27.304Z,18.78
2019-02-25T03:56:53.638Z,18.85
2019-02-25T03:59:19.969Z,18.91
2019-02-25T04:01:46.293Z,18.95
2019-02-25T04:04:12.619Z,19.00
2019-02-25T04:06:38.965Z,19.08
2019-02-25T04:09:05.321Z,19.05
2019-02-25T04:11:31.650Z,19.10
2019-02-25T04:13:58.024Z,19.12
2019-02-25T04:16:24.393Z,19.16
2019-02-25T04:18:50.734Z,19.14
2019-02-25T04:21:17.063Z,19.19
2019-02-25T04:23:43.477Z,19.20
2019-02-25T04:26:09.806Z,19.24
2019-02-25T04:28:36.139Z,19.25
2019-02-25T04:31:02.467Z,19.28
2019-02-25T04:33:30.739Z,19.28
2019-02-25T04:35:55.139Z,19.31
2019-02-25T04:38:21.477Z,19.28
2019-02-25T04:40:47.818Z,19.34
2019-02-25T04:43:14.148Z,19.35
2019-02-25T04:45:40.517Z,19.37
2019-02-25T04:48:06.841Z,19.42
2019-02-25T04:50:33.218Z,19.42
2019-02-25T04:52:59.554Z,19.43
2019-02-25T04:55:25.943Z,19.45
2019-02-25T04:57:52.454Z,19.44
2019-02-25T05:00:18.836Z,19.46
2019-02-25T05:02:45.187Z,19.50
2019-02-25T05:05:11.514Z,19.52
2019-02-25T05:07:37.946Z,19.51
2019-02-25T05:10:04.278Z,19.55
2019-02-25T05:12:30.699Z,19.56
2019-02-25T05:14:57.074Z,19.60
2019-02-25T05:17:23.382Z,19.59
2019-02-25T05:19:49.722Z,19.62
2019-02-25T05:22:16.204Z,19.67
2019-02-25T05:24:42.543Z,19.67
2019-02-25T05:27:08.952Z,19.66
2019-02-25T05:29:35.239Z,19.70
2019-02-25T05:32:01.620Z,19.71
2019-02-25T05:34:28.367Z,19.74
2019-02-25T05:36:54.689Z,19.75
2019-02-25T05:39:21.023Z,19.78
2019-02-25T05:41:47.356Z,19.87
2019-02-25T05:44:13.689Z,19.93
2019-02-25T05:46:40.042Z,19.98
2019-02-25T05:49:06.371Z,20.08
2019-02-25T05:51:32.728Z,20.12
2019-02-25T05:53:59.104Z,20.14
2019-02-25T05:56:25.434Z,20.30
2019-02-25T05:58:51.778Z,20.30
2019-02-25T06:01:18.136Z,20.37
2019-02-25T06:03:44.579Z,20.45
2019-02-25T06:06:10.916Z,20.52
2019-02-25T06:08:37.241Z,20.58
2019-02-25T06:11:03.774Z,20.56
2019-02-25T06:13:30.094Z,20.55
2019-02-25T06:15:56.386Z,20.66
2019-02-25T06:18:22.723Z,20.76
2019-02-25T06:20:49.043Z,20.70
2019-02-25T06:23:15.381Z,20.83
2019-02-25T06:25:41.759Z,20.86
2019-02-25T06:28:08.116Z,21.02
2019-02-25T06:30:34.461Z,20.98
2019-02-25T06:33:00.895Z,21.08
2019-02-25T06:35:27.225Z,21.13
2019-02-25T06:37:53.650Z,21.20
2019-02-25T06:40:20.109Z,21.28
2019-02-25T06:42:46.489Z,21.17
2019-02-25T06:45:12.812Z,21.31
2019-02-25T06:47:43.713Z,21.25
2019-02-25T06:50:14.548Z,21.40
2019-02-25T06:52:40.929Z,21.54
2019-02-25T06:55:07.254Z,21.52
2019-02-25T06:57:33.687Z,21.66
2019-02-25T07:00:00.017Z,21.69
2019-02-25T07:02:26.372Z,21.66
2019-02-25T07:04:52.711Z,21.81
2019-02-25T07:07:19.052Z,21.78
2019-02-25T07:09:45.395Z,21.80
2019-02-25T07:12:11.741Z,22.00
2019-02-25T07:14:38.144Z,22.04
2019-02-25T07:17:04.422Z,22.03
2019-02-25T07:19:30.840Z,22.05
2019-02-25T07:21:57.167Z,22.15
2019-02-25T07:24:23.515Z,22.28
2019-02-25T07:26:49.894Z,22.17
2019-02-25T07:29:16.263Z,22.23
2019-02-25T07:31:42.628Z,22.33
2019-02-25T07:34:08.957Z,22.27
2019-02-25T07:36:35.434Z,22.42
2019-02-25T07:39:01.765Z,22.49
2019-02-25T07:41:28.144Z,22.57
2019-02-25T07:43:54.499Z,22.29
2019-02-25T07:46:20.897Z,22.65
2019-02-25T07:48:47.262Z,22.53
2019-02-25T07:51:13.616Z,22.76
2019-02-25T07:53:39.949Z,22.77
2019-02-25T07:56:06.293Z,22.63
2019-02-25T07:58:32.637Z,22.68
2019-02-25T08:00:58.970Z,22.61
2019-02-25T08:03:25.330Z,22.74
2019-02-25T08:05:51.807Z,22.78
2019-02-25T08:08:19.256Z,22.83
2019-02-25T08:10:45.631Z,22.87
2019-02-25T08:13:11.965Z,22.94
2019-02-25T08:15:38.305Z,22.86
2019-02-25T08:18:04.770Z,22.95
2019-02-25T08:20:31.096Z,23.08
2019-02-25T08:22:57.460Z,23.22
2019-02-25T08:25:23.807Z,23.09
2019-02-25T08:27:50.117Z,23.15
2019-02-25T08:30:16.530Z,23.17
2019-02-25T08:32:42.966Z,23.21
2019-02-25T08:35:09.331Z,23.32
2019-02-25T08:37:35.732Z,23.18
2019-02-25T08:40:02.124Z,23.07
2019-02-25T08:42:28.597Z,23.35
2019-02-25T08:44:54.995Z,23.41
2019-02-25T08:47:21.355Z,23.33
2019-02-25T08:49:47.887Z,23.39
2019-02-25T08:52:14.253Z,23.46
2019-02-25T08:54:40.639Z,23.49
2019-02-25T08:57:06.959Z,23.56
2019-02-25T08:59:33.695Z,23.61
2019-02-25T09:02:00.141Z,23.69
2019-02-25T09:04:26.484Z,23.65
2019-02-25T09:06:52.827Z,23.66
2019-02-25T09:09:21.501Z,23.56
2019-02-25T09:11:47.864Z,23.75
2019-02-25T09:14:14.246Z,23.72
2019-02-25T09:16:40.684Z,23.72
2019-02-25T09:19:07.015Z,23.81
2019-02-25T09:21:33.356Z,23.78
2019-02-25T09:23:59.687Z,23.75
2019-02-25T09:26:26.039Z,23.80
2019-02-25T09:28:53.468Z,23.72
2019-02-25T09:31:19.804Z,23.81
2019-02-25T09:33:46.153Z,23.58
2019-02-25T09:36:12.488Z,23.65
2019-02-25T09:38:38.827Z,23.72
2019-02-25T09:41:05.223Z,23.71
2019-02-25T09:43:31.676Z,23.64
2019-02-25T09:45:58.014Z,23.71
2019-02-25T09:48:24.350Z,23.82
2019-02-25T09:50:50.695Z,23.63
2019-02-25T09:53:17.025Z,23.68
2019-02-25T09:55:43.359Z,23.66
2019-02-25T09:58:09.720Z,23.77
2019-02-25T10:00:36.156Z,23.63
2019-02-25T10:03:02.487Z,23.69
2019-02-25T10:05:28.806Z,23.72
2019-02-25T10:07:55.168Z,23.63
2019-02-25T10:10:21.506Z,23.72
2019-02-25T10:12:47.898Z,23.76
2019-02-25T10:15:14.261Z,23.70
2019-02-25T10:17:40.600Z,23.75
2019-02-25T10:20:06.944Z,23.76
2019-02-25T10:22:33.481Z,23.64
2019-02-25T10:24:59.858Z,23.65
2019-02-25T10:27:26.156Z,23.73
2019-02-25T10:29:52.534Z,23.78
2019-02-25T10:32:19.006Z,23.66
2019-02-25T10:34:45.421Z,23.79
2019-02-25T10:37:13.187Z,23.70
2019-02-25T10:39:38.104Z,23.82
2019-02-25T10:42:04.496Z,23.81
2019-02-25T10:44:31.904Z,23.84
2019-02-25T10:46:57.102Z,23.77
2019-02-25T10:49:24.512Z,24.10
2019-02-25T10:51:49.763Z,24.27
2019-02-25T10:54:16.972Z,24.35
2019-02-25T10:56:42.599Z,24.10
2019-02-25T10:59:08.981Z,23.94
2019-02-25T11:01:36.994Z,23.94
2019-02-25T11:04:01.775Z,23.86
2019-02-25T11:06:29.111Z,24.03
2019-02-25T11:08:54.449Z,24.08
2019-02-25T11:11:22.652Z,23.95
2019-02-25T11:13:47.249Z,24.12
2019-02-25T11:16:14.499Z,24.03
2019-02-25T11:18:40.642Z,24.27
2019-02-25T11:21:08.398Z,23.99
2019-02-25T11:23:32.734Z,24.01
2019-02-25T11:26:00.074Z,24.10
2019-02-25T11:28:26.189Z,24.00
2019-02-25T11:30:53.690Z,24.08
2019-02-25T11:33:18.257Z,24.02
2019-02-25T11:35:45.778Z,23.95
2019-02-25T11:38:11.009Z,24.10
2019-02-25T11:40:38.385Z,24.20
2019-02-25T11:43:03.706Z,24.14
2019-02-25T11:45:30.136Z,24.10
2019-02-25T11:47:56.468Z,24.07
2019-02-25T11:50:22.826Z,24.03
2019-02-25T11:52:49.195Z,24.42
2019-02-25T11:55:15.613Z,24.18
2019-02-25T11:57:41.978Z,24.13
2019-02-25T12:00:08.332Z,24.18
2019-02-25T12:02:35.100Z,24.14
2019-02-25T12:05:01.438Z,24.05
2019-02-25T12:07:27.907Z,24.07
2019-02-25T12:09:54.353Z,24.11
2019-02-25T12:12:20.726Z,24.04
2019-02-25T12:14:47.090Z,24.03
2019-02-25T12:17:13.481Z,24.00
2019-02-25T12:19:39.821Z,23.96
2019-02-25T12:22:06.208Z,23.94
2019-02-25T12:24:32.491Z,23.93
2019-02-25T12:26:58.814Z,23.94
2019-02-25T12:29:25.306Z,23.86
2019-02-25T12:31:51.656Z,23.97
2019-02-25T12:34:17.991Z,23.98
2019-02-25T12:36:44.401Z,23.82
2019-02-25T12:39:10.732Z,23.86
2019-02-25T12:41:37.135Z,23.94
2019-02-25T12:44:03.468Z,24.07
2019-02-25T12:46:29.803Z,23.94
2019-02-25T12:48:56.209Z,23.90
2019-02-25T12:51:22.866Z,23.93
2019-02-25T12:53:49.309Z,23.88
2019-02-25T12:56:15.655Z,23.88
2019-02-25T12:58:41.981Z,23.98
2019-02-25T13:01:08.422Z,23.88
2019-02-25T13:03:34.828Z,23.92
2019-02-25T13:06:01.650Z,23.90
2019-02-25T13:08:28.043Z,23.90
2019-02-25T13:10:54.385Z,24.02
2019-02-25T13:13:20.761Z,23.84
2019-02-25T13:15:47.095Z,23.91
2019-02-25T13:18:13.423Z,23.87
2019-02-25T13:20:39.882Z,23.99
2019-02-25T13:23:06.215Z,23.92
2019-02-25T13:25:32.602Z,23.88
2019-02-25T13:28:01.300Z,23.87
2019-02-25T13:30:25.300Z,23.94
2019-02-25T13:32:51.622Z,23.97
2019-02-25T13:35:18.075Z,24.00
2019-02-25T13:37:44.453Z,24.03
2019-02-25T13:40:10.840Z,23.89
2019-02-25T13:42:37.187Z,23.94
2019-02-25T13:45:03.561Z,23.95
2019-02-25T13:47:29.928Z,24.16
2019-02-25T13:49:56.289Z,23.97
2019-02-25T13:52:22.616Z,23.94
2019-02-25T13:54:48.952Z,24.03
2019-02-25T13:57:15.329Z,23.99
2019-02-25T13:59:41.719Z,23.82
2019-02-25T14:02:08.386Z,24.02
2019-02-25T14:04:37.123Z,24.08
2019-02-25T14:07:05.621Z,24.14
2019-02-25T14:09:31.990Z,24.07
2019-02-25T14:11:58.316Z,24.03
2019-02-25T14:14:24.682Z,24.20
2019-02-25T14:16:51.024Z,24.18
2019-02-25T14:19:17.344Z,24.04
2019-02-25T14:21:43.954Z,24.13
2019-02-25T14:24:10.296Z,24.08
2019-02-25T14:26:37.429Z,24.07
2019-02-25T14:29:03.056Z,24.22
2019-02-25T14:31:30.490Z,24.17
2019-02-25T14:33:56.840Z,24.07
2019-02-25T14:36:23.198Z,24.16
2019-02-25T14:38:49.504Z,24.18
2019-02-25T14:41:16.564Z,24.11
2019-02-25T14:43:47.122Z,24.02
2019-02-25T14:46:11.660Z,24.01
2019-02-25T14:48:35.330Z,23.97
2019-02-25T14:51:01.303Z,23.97
2019-02-25T14:53:29.618Z,23.96
2019-02-25T14:55:58.381Z,23.95
2019-02-25T14:58:23.523Z,23.94
2019-02-25T15:00:52.108Z,23.93
2019-02-25T15:03:20.374Z,23.91
2019-02-25T15:05:45.020Z,23.88
2019-02-25T15:08:11.366Z,23.96
2019-02-25T15:10:38.551Z,23.85
2019-02-25T15:13:06.026Z,23.88
2019-02-25T15:15:30.636Z,23.86
2019-02-25T15:17:56.981Z,23.83
2019-02-25T15:20:24.105Z,23.90
2019-02-25T15:22:49.726Z,23.82
2019-02-25T15:25:16.126Z,23.92
2019-02-25T15:27:42.506Z,23.72
2019-02-25T15:30:08.923Z,23.77
2019-02-25T15:32:36.803Z,23.79
2019-02-25T15:35:01.628Z,23.78
2019-02-25T15:37:27.982Z,23.76
2019-02-25T15:39:55.883Z,23.75
2019-02-25T15:42:23.783Z,23.70
2019-02-25T15:44:49.145Z,23.73
2019-02-25T15:47:14.772Z,23.71
2019-02-25T15:49:39.766Z,23.73
2019-02-25T15:52:06.124Z,23.68
2019-02-25T15:54:33.289Z,23.68
2019-02-25T15:56:58.852Z,23.69
2019-02-25T15:59:31.860Z,23.69
2019-02-25T16:01:51.534Z,23.65
2019-02-25T16:04:17.909Z,23.73
2019-02-25T16:06:44.277Z,23.69
2019-02-25T16:09:10.634Z,23.68
2019-02-25T16:11:37.636Z,23.67
2019-02-25T16:14:03.336Z,23.62
2019-02-25T16:16:29.664Z,23.63
2019-02-25T16:18:56.135Z,23.67
2019-02-25T16:21:24.470Z,23.65
2019-02-25T16:23:48.884Z,23.63
2019-02-25T16:26:16.165Z,23.53
2019-02-25T16:28:41.572Z,23.62
2019-02-25T16:31:08.331Z,23.56
2019-02-25T16:33:35.328Z,23.50
2019-02-25T16:36:01.304Z,23.55
2019-02-25T16:38:29.206Z,23.51
2019-02-25T16:40:56.611Z,23.41
2019-02-25T16:43:19.847Z,23.38
2019-02-25T16:45:47.035Z,23.34
2019-02-25T16:48:12.670Z,23.35
2019-02-25T16:50:39.861Z,23.30
2019-02-25T16:53:07.917Z,23.31
2019-02-25T16:55:31.674Z,23.29
2019-02-25T16:57:59.057Z,23.29
2019-02-25T17:00:25.269Z,23.27
2019-02-25T17:02:50.686Z,23.17
2019-02-25T17:05:17.010Z,23.12
2019-02-25T17:07:44.394Z,23.12
2019-02-25T17:10:09.761Z,23.14
2019-02-25T17:12:36.102Z,23.14
2019-02-25T17:15:02.552Z,23.09
2019-02-25T17:17:28.950Z,23.08
2019-02-25T17:19:55.311Z,23.07
2019-02-25T17:22:21.691Z,23.05
2019-02-25T17:24:48.068Z,23.05
2019-02-25T17:27:14.425Z,22.99
2019-02-25T17:29:40.831Z,22.96
2019-02-25T17:32:07.125Z,22.99
2019-02-25T17:34:34.463Z,22.98
2019-02-25T17:36:59.856Z,22.92
2019-02-25T17:39:26.229Z,22.91
2019-02-25T17:41:52.606Z,22.93
2019-02-25T17:44:20.610Z,22.88
2019-02-25T17:46:45.231Z,22.85
2019-02-25T17:49:12.232Z,22.84
2019-02-25T17:51:37.933Z,22.82
2019-02-25T17:54:05.841Z,22.82
2019-02-25T17:56:30.633Z,22.81
2019-02-25T17:58:58.801Z,22.76
2019-02-25T18:01:24.227Z,22.75
2019-02-25T18:03:49.697Z,22.63
2019-02-25T18:06:16.033Z,22.66
2019-02-25T18:08:42.360Z,22.66
2019-02-25T18:11:08.696Z,22.58
2019-02-25T18:13:35.285Z,22.52
2019-02-25T18:16:01.357Z,22.51
2019-02-25T18:18:27.681Z,22.49
2019-02-25T18:20:54.059Z,22.48
2019-02-25T18:23:21.738Z,22.44
2019-02-25T18:25:46.822Z,22.42
2019-02-25T18:28:13.569Z,22.39
2019-02-25T18:30:39.563Z,22.38
2019-02-25T18:33:05.891Z,22.35
2019-02-25T18:35:33.914Z,22.34
2019-02-25T18:38:00.212Z,22.31
2019-02-25T18:40:24.940Z,22.28
2019-02-25T18:42:51.267Z,22.27
2019-02-25T18:45:18.435Z,22.25
2019-02-25T18:47:43.941Z,22.23
2019-02-25T18:50:10.338Z,22.20
2019-02-25T18:52:38.472Z,22.20
2019-02-25T18:55:05.007Z,22.19
2019-02-25T18:57:29.550Z,22.16
2019-02-25T18:59:56.985Z,22.14
2019-02-25T19:02:22.319Z,22.13
2019-02-25T19:04:48.708Z,22.11
2019-02-25T19:07:15.031Z,22.05
2019-02-25T19:09:42.942Z,22.00
2019-02-25T19:12:07.752Z,21.94
2019-02-25T19:14:34.082Z,21.87
2019-02-25T19:17:02.158Z,21.82
2019-02-25T19:19:26.753Z,21.77
2019-02-25T19:21:54.242Z,21.72
2019-02-25T19:24:19.454Z,21.67
2019-02-25T19:26:46.922Z,21.62
2019-02-25T19:29:12.542Z,21.59
2019-02-25T19:31:39.896Z,21.57
2019-02-25T19:34:04.818Z,21.51
2019-02-25T19:36:32.553Z,21.47
2019-02-25T19:38:57.520Z,21.42
2019-02-25T19:41:25.886Z,21.38
2019-02-25T19:43:58.976Z,21.36
2019-02-25T19:46:16.535Z,21.32
2019-02-25T19:48:42.902Z,21.30
2019-02-25T19:51:09.240Z,21.26
2019-02-25T19:53:36.587Z,21.24
2019-02-25T19:56:02.043Z,21.19
2019-02-25T19:58:31.644Z,21.16
2019-02-25T20:01:00.319Z,21.15
2019-02-25T20:03:21.149Z,21.13
2019-02-25T20:05:48.954Z,21.09
2019-02-25T20:08:13.871Z,21.07
2019-02-25T20:10:40.181Z,21.03
2019-02-25T20:13:08.616Z,21.00
2019-02-25T20:15:32.924Z,20.97
2019-02-25T20:17:59.258Z,20.97
2019-02-25T20:20:25.594Z,20.94
2019-02-25T20:22:51.925Z,20.91
2019-02-25T20:25:19.360Z,20.88
2019-02-25T20:27:44.657Z,20.87
2019-02-25T20:30:10.991Z,20.82
2019-02-25T20:32:38.641Z,20.80
2019-02-25T20:35:03.676Z,20.78
2019-02-25T20:37:31.383Z,20.75
2019-02-25T20:39:56.398Z,20.75
2019-02-25T20:42:24.413Z,20.74
2019-02-25T20:44:51.279Z,20.71
2019-02-25T20:47:15.507Z,20.71
2019-02-25T20:49:41.847Z,20.69
2019-02-25T20:52:08.177Z,20.65
2019-02-25T20:54:37.861Z,20.66
2019-02-25T20:57:00.855Z,20.62
2019-02-25T20:59:28.306Z,20.58
2019-02-25T21:01:53.543Z,20.55
2019-02-25T21:04:20.631Z,20.55
2019-02-25T21:06:46.279Z,20.50
2019-02-25T21:09:12.599Z,20.51
2019-02-25T21:11:38.942Z,20.51
2019-02-25T21:14:05.315Z,20.48
2019-02-25T21:16:33.082Z,20.47
2019-02-25T21:18:58.052Z,20.46
2019-02-25T21:21:24.463Z,20.43
2019-02-25T21:23:50.926Z,20.39
2019-02-25T21:26:17.256Z,20.41
2019-02-25T21:28:43.566Z,20.41
2019-02-25T21:31:13.787Z,20.38
2019-02-25T21:33:36.348Z,20.35
2019-02-25T21:36:02.688Z,20.33
2019-02-25T21:38:30.292Z,20.29
2019-02-25T21:40:55.364Z,20.31
2019-02-25T21:43:24.102Z,20.29
2019-02-25T21:45:49.967Z,20.25
2019-02-25T21:48:14.397Z,20.23
2019-02-25T21:50:42.604Z,20.23
2019-02-25T21:53:09.243Z,20.24
2019-02-25T21:55:34.965Z,20.19
2019-02-25T21:58:02.433Z,20.19
2019-02-25T22:00:27.135Z,20.15
2019-02-25T22:02:52.755Z,20.15
2019-02-25T22:05:21.052Z,20.15
2019-02-25T22:07:49.897Z,20.15
2019-02-25T22:10:11.834Z,20.12
2019-02-25T22:12:39.882Z,20.12
2019-02-25T22:15:04.565Z,20.09
2019-02-25T22:17:30.904Z,20.06
2019-02-25T22:19:57.237Z,20.07
2019-02-25T22:22:26.267Z,20.06
2019-02-25T22:24:49.896Z,20.06
2019-02-25T22:27:16.802Z,20.05
2019-02-25T22:29:43.137Z,20.04
2019-02-25T22:32:10.931Z,20.02
2019-02-25T22:34:35.277Z,19.98
2019-02-25T22:37:02.514Z,20.00
2019-02-25T22:39:30.229Z,19.97
2019-02-25T22:41:54.448Z,19.94
2019-02-25T22:44:22.597Z,19.93
2019-02-25T22:46:47.234Z,19.95
2019-02-25T22:49:13.565Z,19.93
2019-02-25T22:51:40.033Z,19.90
2019-02-25T22:54:10.128Z,19.90
2019-02-25T22:56:32.785Z,19.95
2019-02-25T22:59:00.484Z,19.86
2019-02-25T23:01:25.545Z,19.89
2019-02-25T23:03:54.571Z,19.86
2019-02-25T23:06:19.151Z,19.82
2019-02-25T23:08:46.451Z,19.84
2019-02-25T23:11:12.527Z,19.84
2019-02-25T23:13:37.225Z,19.81
2019-02-25T23:16:03.563Z,19.78
2019-02-25T23:18:29.896Z,19.81
2019-02-25T23:20:59.676Z,19.78
2019-02-25T23:23:25.392Z,19.75
2019-02-25T23:25:49.605Z,19.77
2019-02-25T23:28:15.359Z,19.75
2019-02-25T23:30:41.691Z,19.74
2019-02-25T23:33:11.809Z,19.74
2019-02-25T23:35:34.382Z,19.70
2019-02-25T23:38:00.954Z,19.71
2019-02-25T23:40:27.056Z,19.70
2019-02-25T23:42:53.469Z,19.66
2019-02-25T23:45:21.243Z,19.67
2019-02-25T23:47:46.205Z,19.67
2019-02-25T23:50:13.689Z,19.64
2019-02-25T23:52:38.873Z,19.62
2019-02-25T23:55:05.240Z,19.64
2019-02-25T23:57:32.708Z,19.64
2019-02-25T23:59:58.017Z,19.57
